createdAt,value
2018-10-09T00:00:21.332Z,36.15
2018-10-09T00:01:23.951Z,35.69
2018-10-09T00:02:26.561Z,35.66
2018-10-09T00:03:29.159Z,36.19
2018-10-09T00:04:31.750Z,35.86
2018-10-09T00:05:34.343Z,36.24
2018-10-09T00:06:37.079Z,36.31
2018-10-09T00:07:39.667Z,36.10
2018-10-09T00:08:42.247Z,35.98
2018-10-09T00:09:44.862Z,36.14
2018-10-09T00:10:47.531Z,36.20
2018-10-09T00:11:50.136Z,35.89
2018-10-09T00:12:52.735Z,35.82
2018-10-09T00:13:55.343Z,35.67
2018-10-09T00:14:57.991Z,36.04
2018-10-09T00:16:00.583Z,35.79
2018-10-09T00:17:03.195Z,36.30
2018-10-09T00:18:05.804Z,35.85
2018-10-09T00:19:08.624Z,35.67
2018-10-09T00:20:15.291Z,36.15
2018-10-09T00:21:17.891Z,35.64
2018-10-09T00:22:20.487Z,36.24
2018-10-09T00:23:23.072Z,35.63
2018-10-09T00:24:25.757Z,35.82
2018-10-09T00:25:28.347Z,36.07
2018-10-09T00:26:31.045Z,36.06
2018-10-09T00:27:33.688Z,36.17
2018-10-09T00:28:36.311Z,36.05
2018-10-09T00:29:38.903Z,35.89
2018-10-09T00:30:41.513Z,35.80
2018-10-09T00:31:44.115Z,35.99
2018-10-09T00:32:46.787Z,35.57
2018-10-09T00:33:49.402Z,35.66
2018-10-09T00:34:51.995Z,35.84
2018-10-09T00:35:54.599Z,35.87
2018-10-09T00:36:57.200Z,35.81
2018-10-09T00:37:59.795Z,35.75
2018-10-09T00:39:03.087Z,35.53
2018-10-09T00:40:05.795Z,35.55
2018-10-09T00:41:08.415Z,35.73
2018-10-09T00:42:11.029Z,35.53
2018-10-09T00:43:13.631Z,35.81
2018-10-09T00:44:16.358Z,35.86
2018-10-09T00:45:18.972Z,35.90
2018-10-09T00:46:21.591Z,35.53
2018-10-09T00:47:24.207Z,35.60
2018-10-09T00:48:26.841Z,35.58
2018-10-09T00:49:29.459Z,35.43
2018-10-09T00:50:32.324Z,35.75
2018-10-09T00:51:34.959Z,35.76
2018-10-09T00:52:37.607Z,35.40
2018-10-09T00:53:40.235Z,35.66
2018-10-09T00:54:42.895Z,35.45
2018-10-09T00:55:45.552Z,35.81
2018-10-09T00:56:48.171Z,35.49
2018-10-09T00:57:50.827Z,35.77
2018-10-09T00:58:53.475Z,35.37
2018-10-09T00:59:56.091Z,35.85
2018-10-09T01:00:58.683Z,35.37
2018-10-09T01:02:01.311Z,35.50
2018-10-09T01:03:03.971Z,35.35
2018-10-09T01:04:06.644Z,35.85
2018-10-09T01:05:09.299Z,35.59
2018-10-09T01:06:11.919Z,35.54
2018-10-09T01:07:14.519Z,35.34
2018-10-09T01:08:17.115Z,35.87
2018-10-09T01:09:20.066Z,35.75
2018-10-09T01:10:22.556Z,35.32
2018-10-09T01:11:25.167Z,35.83
2018-10-09T01:12:27.765Z,35.23
2018-10-09T01:13:30.399Z,35.39
2018-10-09T01:14:33.021Z,35.31
2018-10-09T01:15:35.607Z,35.70
2018-10-09T01:16:38.211Z,35.37
2018-10-09T01:17:40.803Z,35.49
2018-10-09T01:18:43.387Z,35.65
2018-10-09T01:19:46.035Z,35.60
2018-10-09T01:20:48.647Z,35.35
2018-10-09T01:21:51.239Z,35.34
2018-10-09T01:22:53.868Z,35.25
2018-10-09T01:23:56.463Z,35.79
2018-10-09T01:24:59.063Z,35.82
2018-10-09T01:26:01.700Z,35.70
2018-10-09T01:27:04.327Z,35.87
2018-10-09T01:28:06.991Z,35.96
2018-10-09T01:29:09.655Z,35.73
2018-10-09T01:30:12.257Z,35.55
2018-10-09T01:31:14.871Z,35.76
2018-10-09T01:32:17.483Z,35.92
2018-10-09T01:33:20.083Z,35.73
2018-10-09T01:34:22.675Z,35.61
2018-10-09T01:35:25.284Z,35.71
2018-10-09T01:36:27.903Z,35.63
2018-10-09T01:37:30.495Z,35.66
2018-10-09T01:38:33.084Z,35.54
2018-10-09T01:39:35.719Z,35.88
2018-10-09T01:40:38.303Z,35.91
2018-10-09T01:41:40.928Z,35.49
2018-10-09T01:42:43.523Z,35.61
2018-10-09T01:43:46.111Z,35.74
2018-10-09T01:44:48.727Z,35.95
2018-10-09T01:45:51.370Z,35.59
2018-10-09T01:46:53.967Z,36.06
2018-10-09T01:47:56.591Z,35.94
2018-10-09T01:48:59.211Z,35.91
2018-10-09T01:50:01.819Z,36.14
2018-10-09T01:51:04.427Z,35.74
2018-10-09T01:52:07.175Z,36.02
2018-10-09T01:53:09.767Z,35.93
2018-10-09T01:54:13.039Z,36.02
2018-10-09T01:55:15.661Z,35.58
2018-10-09T01:56:18.260Z,35.55
2018-10-09T01:57:20.871Z,35.66
2018-10-09T01:58:23.500Z,35.94
2018-10-09T01:59:26.143Z,35.87
2018-10-09T02:00:28.754Z,35.67
2018-10-09T02:01:31.349Z,35.95
2018-10-09T02:02:33.944Z,35.73
2018-10-09T02:03:36.579Z,35.97
2018-10-09T02:04:39.187Z,36.11
2018-10-09T02:05:41.882Z,35.73
2018-10-09T02:06:44.540Z,35.91
2018-10-09T02:07:47.155Z,35.94
2018-10-09T02:08:49.755Z,35.76
2018-10-09T02:09:52.363Z,35.82
2018-10-09T02:10:55.181Z,36.15
2018-10-09T02:11:57.800Z,35.88
2018-10-09T02:13:00.383Z,35.85
2018-10-09T02:14:03.003Z,36.10
2018-10-09T02:15:05.839Z,35.95
2018-10-09T02:16:08.644Z,35.89
2018-10-09T02:17:11.283Z,35.99
2018-10-09T02:18:13.876Z,36.23
2018-10-09T02:19:16.464Z,36.43
2018-10-09T02:20:19.075Z,36.38
2018-10-09T02:21:21.783Z,36.39
2018-10-09T02:22:24.377Z,36.44
2018-10-09T02:23:27.153Z,36.34
2018-10-09T02:24:29.752Z,36.01
2018-10-09T02:25:32.339Z,36.26
2018-10-09T02:26:34.953Z,36.50
2018-10-09T02:27:37.555Z,36.12
2018-10-09T02:28:40.159Z,35.91
2018-10-09T02:29:42.747Z,35.99
2018-10-09T02:30:45.342Z,36.02
2018-10-09T02:31:48.063Z,36.57
2018-10-09T02:32:50.658Z,36.52
2018-10-09T02:33:53.268Z,36.16
2018-10-09T02:34:55.909Z,36.53
2018-10-09T02:35:58.476Z,36.56
2018-10-09T02:37:01.195Z,36.34
2018-10-09T02:38:03.887Z,36.19
2018-10-09T02:39:08.671Z,36.20
2018-10-09T02:40:11.279Z,35.99
2018-10-09T02:41:13.875Z,36.06
2018-10-09T02:42:16.507Z,36.08
2018-10-09T02:43:19.112Z,36.12
2018-10-09T02:44:21.708Z,36.40
2018-10-09T02:45:24.296Z,36.23
2018-10-09T02:46:26.899Z,36.49
2018-10-09T02:47:29.514Z,36.15
2018-10-09T02:48:32.119Z,36.71
2018-10-09T02:49:34.728Z,36.63
2018-10-09T02:50:37.319Z,36.18
2018-10-09T02:51:39.920Z,36.67
2018-10-09T02:52:42.552Z,36.64
2018-10-09T02:53:45.151Z,36.37
2018-10-09T02:54:47.751Z,36.15
2018-10-09T02:55:50.355Z,36.34
2018-10-09T02:56:52.971Z,36.21
2018-10-09T02:57:55.566Z,36.42
2018-10-09T02:58:58.167Z,36.25
2018-10-09T03:00:00.973Z,36.26
2018-10-09T03:01:03.588Z,36.41
2018-10-09T03:02:06.242Z,36.31
2018-10-09T03:03:08.851Z,36.40
2018-10-09T03:04:11.455Z,36.27
2018-10-09T03:05:14.063Z,36.79
2018-10-09T03:06:16.660Z,36.62
2018-10-09T03:07:19.308Z,36.89
2018-10-09T03:08:21.958Z,36.85
2018-10-09T03:09:25.424Z,36.39
2018-10-09T03:10:28.016Z,36.33
2018-10-09T03:11:30.612Z,36.44
2018-10-09T03:12:33.239Z,36.45
2018-10-09T03:13:35.819Z,36.73
2018-10-09T03:14:38.415Z,36.93
2018-10-09T03:15:41.006Z,36.60
2018-10-09T03:16:43.653Z,36.86
2018-10-09T03:17:46.256Z,36.96
2018-10-09T03:18:48.852Z,37.02
2018-10-09T03:19:51.447Z,36.83
2018-10-09T03:20:54.084Z,36.63
2018-10-09T03:21:56.677Z,37.12
2018-10-09T03:22:59.275Z,36.89
2018-10-09T03:24:01.935Z,36.89
2018-10-09T03:25:04.816Z,36.89
2018-10-09T03:26:07.652Z,36.72
2018-10-09T03:27:10.251Z,37.01
2018-10-09T03:28:12.883Z,36.84
2018-10-09T03:29:15.500Z,36.98
2018-10-09T03:30:18.088Z,36.50
2018-10-09T03:31:20.696Z,36.86
2018-10-09T03:32:23.320Z,36.80
2018-10-09T03:33:25.941Z,36.60
2018-10-09T03:34:28.588Z,36.70
2018-10-09T03:35:31.192Z,36.92
2018-10-09T03:36:33.803Z,36.69
2018-10-09T03:37:36.527Z,36.90
2018-10-09T03:38:39.124Z,36.46
2018-10-09T03:39:41.719Z,36.43
2018-10-09T03:40:44.342Z,36.60
2018-10-09T03:41:46.964Z,36.49
2018-10-09T03:42:49.571Z,36.55
2018-10-09T03:43:52.199Z,37.04
2018-10-09T03:44:54.820Z,37.04
2018-10-09T03:45:57.479Z,36.99
2018-10-09T03:47:00.122Z,36.67
2018-10-09T03:48:02.983Z,36.45
2018-10-09T03:49:05.952Z,36.64
2018-10-09T03:50:08.583Z,36.97
2018-10-09T03:51:11.191Z,36.82
2018-10-09T03:52:13.822Z,37.07
2018-10-09T03:53:16.467Z,36.72
2018-10-09T03:54:19.056Z,37.05
2018-10-09T03:55:21.644Z,37.35
2018-10-09T03:56:24.291Z,37.29
2018-10-09T03:57:26.895Z,37.02
2018-10-09T03:58:29.493Z,37.34
2018-10-09T03:59:32.089Z,37.06
2018-10-09T04:00:34.689Z,37.35
2018-10-09T04:01:37.304Z,37.21
2018-10-09T04:02:39.908Z,37.11
2018-10-09T04:03:42.499Z,37.05
2018-10-09T04:04:45.095Z,37.03
2018-10-09T04:05:47.716Z,37.20
2018-10-09T04:06:50.355Z,37.15
2018-10-09T04:07:52.983Z,37.20
2018-10-09T04:08:55.628Z,36.82
2018-10-09T04:09:58.243Z,36.83
2018-10-09T04:11:00.875Z,36.68
2018-10-09T04:12:03.475Z,37.16
2018-10-09T04:13:06.146Z,36.73
2018-10-09T04:14:08.780Z,37.06
2018-10-09T04:15:11.455Z,36.65
2018-10-09T04:16:14.055Z,37.01
2018-10-09T04:17:16.647Z,36.52
2018-10-09T04:18:19.241Z,36.87
2018-10-09T04:19:21.932Z,37.00
2018-10-09T04:20:24.497Z,36.93
2018-10-09T04:21:27.095Z,37.03
2018-10-09T04:22:29.703Z,36.64
2018-10-09T04:23:32.291Z,36.91
2018-10-09T04:24:34.915Z,36.55
2018-10-09T04:25:37.594Z,37.16
2018-10-09T04:26:40.187Z,37.03
2018-10-09T04:27:42.804Z,36.90
2018-10-09T04:28:45.417Z,37.03
2018-10-09T04:29:48.027Z,37.27
2018-10-09T04:30:50.627Z,36.69
2018-10-09T04:31:53.228Z,36.76
2018-10-09T04:32:55.839Z,37.10
2018-10-09T04:33:58.435Z,36.85
2018-10-09T04:35:01.037Z,36.87
2018-10-09T04:36:03.635Z,36.94
2018-10-09T04:37:06.296Z,36.95
2018-10-09T04:38:08.951Z,36.85
2018-10-09T04:39:11.571Z,37.34
2018-10-09T04:40:14.195Z,36.82
2018-10-09T04:41:16.795Z,37.45
2018-10-09T04:42:19.399Z,37.00
2018-10-09T04:43:22.040Z,37.24
2018-10-09T04:44:24.649Z,37.48
2018-10-09T04:45:28.561Z,37.15
2018-10-09T04:46:31.160Z,37.21
2018-10-09T04:47:33.875Z,36.98
2018-10-09T04:48:36.472Z,37.01
2018-10-09T04:49:39.073Z,37.36
2018-10-09T04:50:41.678Z,37.42
2018-10-09T04:51:44.287Z,37.13
2018-10-09T04:52:46.892Z,37.31
2018-10-09T04:53:49.509Z,37.37
2018-10-09T04:54:52.106Z,37.58
2018-10-09T04:55:54.755Z,37.17
2018-10-09T04:56:57.346Z,37.20
2018-10-09T04:58:00.143Z,37.51
2018-10-09T04:59:02.864Z,37.12
2018-10-09T05:00:06.027Z,37.47
2018-10-09T05:01:08.635Z,37.35
2018-10-09T05:02:11.239Z,37.18
2018-10-09T05:03:13.844Z,37.66
2018-10-09T05:04:16.751Z,37.17
2018-10-09T05:05:19.351Z,37.17
2018-10-09T05:06:21.975Z,37.81
2018-10-09T05:07:24.589Z,37.44
2018-10-09T05:08:27.183Z,37.58
2018-10-09T05:09:29.783Z,37.34
2018-10-09T05:10:32.387Z,37.63
2018-10-09T05:11:34.979Z,37.33
2018-10-09T05:12:37.587Z,37.49
2018-10-09T05:13:40.195Z,37.41
2018-10-09T05:14:42.839Z,37.65
2018-10-09T05:15:45.439Z,37.91
2018-10-09T05:16:48.043Z,37.32
2018-10-09T05:17:50.632Z,37.40
2018-10-09T05:18:53.272Z,37.45
2018-10-09T05:19:55.877Z,37.84
2018-10-09T05:20:58.479Z,37.63
2018-10-09T05:22:01.077Z,37.69
2018-10-09T05:23:03.771Z,37.45
2018-10-09T05:24:06.395Z,37.57
2018-10-09T05:25:09.021Z,37.64
2018-10-09T05:26:11.675Z,37.52
2018-10-09T05:27:14.318Z,38.01
2018-10-09T05:28:16.951Z,37.78
2018-10-09T05:29:19.792Z,37.94
2018-10-09T05:30:22.492Z,38.00
2018-10-09T05:31:25.168Z,37.97
2018-10-09T05:32:27.743Z,38.12
2018-10-09T05:33:30.355Z,37.73
2018-10-09T05:34:32.963Z,37.95
2018-10-09T05:35:35.575Z,38.14
2018-10-09T05:36:38.181Z,37.80
2018-10-09T05:37:40.851Z,37.69
2018-10-09T05:38:44.018Z,37.82
2018-10-09T05:39:46.620Z,37.84
2018-10-09T05:40:49.235Z,37.80
2018-10-09T05:41:51.844Z,37.86
2018-10-09T05:42:54.591Z,38.03
2018-10-09T05:43:57.195Z,37.98
2018-10-09T05:44:59.826Z,38.21
2018-10-09T05:46:02.441Z,37.74
2018-10-09T05:47:05.102Z,37.67
2018-10-09T05:48:08.986Z,38.03
2018-10-09T05:49:11.587Z,37.73
2018-10-09T05:50:14.279Z,38.00
2018-10-09T05:51:16.923Z,38.14
2018-10-09T05:52:19.541Z,37.72
2018-10-09T05:53:22.141Z,38.31
2018-10-09T05:54:24.775Z,38.37
2018-10-09T05:55:27.390Z,38.33
2018-10-09T05:56:30.015Z,37.76
2018-10-09T05:57:32.615Z,38.34
2018-10-09T05:58:35.226Z,38.33
2018-10-09T05:59:38.135Z,38.22
2018-10-09T06:00:40.743Z,38.13
2018-10-09T06:01:43.340Z,38.37
2018-10-09T06:02:45.943Z,38.33
2018-10-09T06:03:48.556Z,38.36
2018-10-09T06:04:51.155Z,37.97
2018-10-09T06:05:53.794Z,38.24
2018-10-09T06:06:56.440Z,38.29
2018-10-09T06:07:59.180Z,38.05
2018-10-09T06:09:01.815Z,37.90
2018-10-09T06:10:04.791Z,38.36
2018-10-09T06:11:07.420Z,38.53
2018-10-09T06:12:10.091Z,38.20
2018-10-09T06:13:12.707Z,38.53
2018-10-09T06:14:15.301Z,38.44
2018-10-09T06:15:17.975Z,38.58
2018-10-09T06:16:20.551Z,38.51
2018-10-09T06:17:23.141Z,38.55
2018-10-09T06:18:25.747Z,38.21
2018-10-09T06:19:28.348Z,38.50
2018-10-09T06:20:30.963Z,38.51
2018-10-09T06:21:33.570Z,38.71
2018-10-09T06:22:36.160Z,38.52
2018-10-09T06:23:38.799Z,38.11
2018-10-09T06:24:41.391Z,38.29
2018-10-09T06:25:43.991Z,38.33
2018-10-09T06:26:46.599Z,38.30
2018-10-09T06:27:49.246Z,38.06
2018-10-09T06:28:51.827Z,38.47
2018-10-09T06:29:54.439Z,38.44
2018-10-09T06:30:57.295Z,38.15
2018-10-09T06:31:59.928Z,38.68
2018-10-09T06:33:02.537Z,38.49
2018-10-09T06:34:05.163Z,38.52
2018-10-09T06:35:07.840Z,38.82
2018-10-09T06:36:10.520Z,38.89
2018-10-09T06:37:13.164Z,38.45
2018-10-09T06:38:15.775Z,38.60
2018-10-09T06:39:18.373Z,38.48
2018-10-09T06:40:20.999Z,38.45
2018-10-09T06:41:23.615Z,38.71
2018-10-09T06:42:26.216Z,38.44
2018-10-09T06:43:28.839Z,38.32
2018-10-09T06:44:31.455Z,38.37
2018-10-09T06:45:34.082Z,38.30
2018-10-09T06:46:36.707Z,38.36
2018-10-09T06:47:39.422Z,38.55
2018-10-09T06:48:41.975Z,39.01
2018-10-09T06:49:44.587Z,38.48
2018-10-09T06:50:47.187Z,38.67
2018-10-09T06:51:49.796Z,38.55
2018-10-09T06:52:52.435Z,39.03
2018-10-09T06:53:55.239Z,38.89
2018-10-09T06:54:57.731Z,38.85
2018-10-09T06:56:00.515Z,39.27
2018-10-09T06:57:03.159Z,38.86
2018-10-09T06:58:05.767Z,39.40
2018-10-09T06:59:08.359Z,39.33
2018-10-09T07:00:11.038Z,39.02
2018-10-09T07:01:13.624Z,39.00
2018-10-09T07:02:16.256Z,39.63
2018-10-09T07:03:18.859Z,39.58
2018-10-09T07:04:21.476Z,39.24
2018-10-09T07:05:24.083Z,39.77
2018-10-09T07:06:26.718Z,39.50
2018-10-09T07:07:29.327Z,39.81
2018-10-09T07:08:31.932Z,39.41
2018-10-09T07:09:34.541Z,39.71
2018-10-09T07:10:37.136Z,39.55
2018-10-09T07:11:39.844Z,39.52
2018-10-09T07:12:42.423Z,39.40
2018-10-09T07:13:45.043Z,39.58
2018-10-09T07:14:47.647Z,39.61
2018-10-09T07:15:50.243Z,39.61
2018-10-09T07:16:52.858Z,39.59
2018-10-09T07:17:55.468Z,40.03
2018-10-09T07:18:58.068Z,39.61
2018-10-09T07:20:00.711Z,39.99
2018-10-09T07:21:03.332Z,39.58
2018-10-09T07:22:05.972Z,40.17
2018-10-09T07:23:08.587Z,39.84
2018-10-09T07:24:11.184Z,39.62
2018-10-09T07:25:13.834Z,40.13
2018-10-09T07:26:16.479Z,40.00
2018-10-09T07:27:19.091Z,40.21
2018-10-09T07:28:21.689Z,39.91
2018-10-09T07:29:24.320Z,40.10
2018-10-09T07:30:26.920Z,40.11
2018-10-09T07:31:29.531Z,40.11
2018-10-09T07:32:32.298Z,40.33
2018-10-09T07:33:34.888Z,39.85
2018-10-09T07:34:37.479Z,39.97
2018-10-09T07:35:40.091Z,40.01
2018-10-09T07:36:42.682Z,40.08
2018-10-09T07:37:45.310Z,39.81
2018-10-09T07:38:47.920Z,39.66
2018-10-09T07:39:50.516Z,39.80
2018-10-09T07:40:53.397Z,39.70
2018-10-09T07:41:56.039Z,39.57
2018-10-09T07:42:58.672Z,39.89
2018-10-09T07:44:01.363Z,39.33
2018-10-09T07:45:04.035Z,39.61
2018-10-09T07:46:06.680Z,39.26
2018-10-09T07:47:09.287Z,39.76
2018-10-09T07:48:11.874Z,39.61
2018-10-09T07:49:14.479Z,39.11
2018-10-09T07:50:17.100Z,39.04
2018-10-09T07:51:19.699Z,39.09
2018-10-09T07:52:22.306Z,39.03
2018-10-09T07:53:24.901Z,39.10
2018-10-09T07:54:27.527Z,39.67
2018-10-09T07:55:30.147Z,39.48
2018-10-09T07:56:32.771Z,39.77
2018-10-09T07:57:35.409Z,39.55
2018-10-09T07:58:38.073Z,39.38
2018-10-09T07:59:40.671Z,39.53
2018-10-09T08:00:43.383Z,39.66
2018-10-09T08:01:45.987Z,39.36
2018-10-09T08:02:48.594Z,39.33
2018-10-09T08:03:51.455Z,39.35
2018-10-09T08:04:54.148Z,39.68
2018-10-09T08:05:56.747Z,39.73
2018-10-09T08:06:59.403Z,39.88
2018-10-09T08:08:02.019Z,39.92
2018-10-09T08:09:07.616Z,39.91
2018-10-09T08:10:10.243Z,39.58
2018-10-09T08:11:12.871Z,39.48
2018-10-09T08:12:15.463Z,40.06
2018-10-09T08:13:18.107Z,39.62
2018-10-09T08:14:20.715Z,39.55
2018-10-09T08:15:23.311Z,39.57
2018-10-09T08:16:25.932Z,39.72
2018-10-09T08:17:28.565Z,40.03
2018-10-09T08:18:31.196Z,39.82
2018-10-09T08:19:33.801Z,40.12
2018-10-09T08:20:36.407Z,39.93
2018-10-09T08:21:39.039Z,40.13
2018-10-09T08:22:41.738Z,39.68
2018-10-09T08:23:44.272Z,39.78
2018-10-09T08:24:47.163Z,40.15
2018-10-09T08:25:49.796Z,40.18
2018-10-09T08:26:52.403Z,40.30
2018-10-09T08:27:55.052Z,40.39
2018-10-09T08:28:57.654Z,40.40
2018-10-09T08:30:00.271Z,40.14
2018-10-09T08:31:02.855Z,40.38
2018-10-09T08:32:05.527Z,40.46
2018-10-09T08:33:08.136Z,40.39
2018-10-09T08:34:10.768Z,40.61
2018-10-09T08:35:13.374Z,40.21
2018-10-09T08:36:15.974Z,40.45
2018-10-09T08:37:18.571Z,40.34
2018-10-09T08:38:21.179Z,40.63
2018-10-09T08:39:23.795Z,40.57
2018-10-09T08:40:26.561Z,40.70
2018-10-09T08:41:29.116Z,40.53
2018-10-09T08:42:31.727Z,40.50
2018-10-09T08:43:34.351Z,41.02
2018-10-09T08:44:36.951Z,41.03
2018-10-09T08:45:39.559Z,41.03
2018-10-09T08:46:42.191Z,40.66
2018-10-09T08:47:44.819Z,40.88
2018-10-09T08:48:47.415Z,40.96
2018-10-09T08:49:50.027Z,40.67
2018-10-09T08:50:52.695Z,40.70
2018-10-09T08:51:55.343Z,40.77
2018-10-09T08:52:57.935Z,41.21
2018-10-09T08:54:00.563Z,41.22
2018-10-09T08:55:03.275Z,41.15
2018-10-09T08:56:06.184Z,41.05
2018-10-09T08:57:08.779Z,41.38
2018-10-09T08:58:11.415Z,40.99
2018-10-09T08:59:14.031Z,41.50
2018-10-09T09:00:16.671Z,41.52
2018-10-09T09:01:19.276Z,41.58
2018-10-09T09:02:21.902Z,41.35
2018-10-09T09:03:24.530Z,41.34
2018-10-09T09:04:27.118Z,41.20
2018-10-09T09:05:29.867Z,41.69
2018-10-09T09:06:32.490Z,41.92
2018-10-09T09:07:35.095Z,41.39
2018-10-09T09:08:37.695Z,41.39
2018-10-09T09:09:40.367Z,41.32
2018-10-09T09:10:42.937Z,41.73
2018-10-09T09:11:45.550Z,41.66
2018-10-09T09:12:48.175Z,41.98
2018-10-09T09:13:50.782Z,41.45
2018-10-09T09:14:53.437Z,41.60
2018-10-09T09:15:56.040Z,42.03
2018-10-09T09:16:58.663Z,42.05
2018-10-09T09:18:01.279Z,41.97
2018-10-09T09:19:03.939Z,41.99
2018-10-09T09:20:06.715Z,41.94
2018-10-09T09:21:09.482Z,42.18
2018-10-09T09:22:12.048Z,42.25
2018-10-09T09:23:14.660Z,42.28
2018-10-09T09:24:17.263Z,41.95
2018-10-09T09:25:19.859Z,41.78
2018-10-09T09:26:22.471Z,42.39
2018-10-09T09:27:25.132Z,42.43
2018-10-09T09:28:27.696Z,41.99
2018-10-09T09:29:30.300Z,42.19
2018-10-09T09:30:32.912Z,42.20
2018-10-09T09:31:35.536Z,42.44
2018-10-09T09:32:38.127Z,42.65
2018-10-09T09:33:40.735Z,42.48
2018-10-09T09:34:43.344Z,42.51
2018-10-09T09:35:45.971Z,42.39
2018-10-09T09:36:48.826Z,42.92
2018-10-09T09:37:51.447Z,42.62
2018-10-09T09:38:54.106Z,42.61
2018-10-09T09:39:56.711Z,42.71
2018-10-09T09:40:59.352Z,43.12
2018-10-09T09:42:01.951Z,43.08
2018-10-09T09:43:04.576Z,43.34
2018-10-09T09:44:07.187Z,43.45
2018-10-09T09:45:09.803Z,43.16
2018-10-09T09:46:12.485Z,43.34
2018-10-09T09:47:15.064Z,43.42
2018-10-09T09:48:17.710Z,43.21
2018-10-09T09:49:20.319Z,43.27
2018-10-09T09:50:22.915Z,43.59
2018-10-09T09:51:25.519Z,43.47
2018-10-09T09:52:28.144Z,43.80
2018-10-09T09:53:30.751Z,43.92
2018-10-09T09:54:33.392Z,43.86
2018-10-09T09:55:36.025Z,43.89
2018-10-09T09:56:38.652Z,43.63
2018-10-09T09:57:41.305Z,43.61
2018-10-09T09:58:44.132Z,43.85
2018-10-09T09:59:46.584Z,43.74
2018-10-09T10:01:02.658Z,44.04
2018-10-09T10:02:05.299Z,43.49
2018-10-09T10:03:07.971Z,43.62
2018-10-09T10:04:11.359Z,43.99
2018-10-09T10:05:13.999Z,43.92
2018-10-09T10:06:16.611Z,43.99
2018-10-09T10:07:19.251Z,43.91
2018-10-09T10:08:21.852Z,43.56
2018-10-09T10:09:24.569Z,44.33
2018-10-09T10:10:27.131Z,44.31
2018-10-09T10:11:29.751Z,44.19
2018-10-09T10:12:32.363Z,44.37
2018-10-09T10:13:34.987Z,44.18
2018-10-09T10:14:37.588Z,44.02
2018-10-09T10:15:40.215Z,44.02
2018-10-09T10:16:42.831Z,44.49
2018-10-09T10:17:45.514Z,44.05
2018-10-09T10:18:48.133Z,44.27
2018-10-09T10:19:50.823Z,44.32
2018-10-09T10:20:53.434Z,44.70
2018-10-09T10:21:56.101Z,44.19
2018-10-09T10:22:58.715Z,44.38
2018-10-09T10:24:01.352Z,44.21
2018-10-09T10:25:04.023Z,44.22
2018-10-09T10:26:06.771Z,44.81
2018-10-09T10:27:09.371Z,44.84
2018-10-09T10:28:11.983Z,44.93
2018-10-09T10:29:14.606Z,44.50
2018-10-09T10:30:17.247Z,44.79
2018-10-09T10:31:19.854Z,44.46
2018-10-09T10:32:22.483Z,44.60
2018-10-09T10:33:25.095Z,44.83
2018-10-09T10:34:27.707Z,44.36
2018-10-09T10:35:30.393Z,44.50
2018-10-09T10:36:32.998Z,44.86
2018-10-09T10:37:35.591Z,44.56
2018-10-09T10:38:38.215Z,45.08
2018-10-09T10:39:40.820Z,45.07
2018-10-09T10:40:43.420Z,44.56
2018-10-09T10:41:46.015Z,44.91
2018-10-09T10:42:48.631Z,45.03
2018-10-09T10:43:51.237Z,44.97
2018-10-09T10:44:53.875Z,44.88
2018-10-09T10:45:56.499Z,44.75
2018-10-09T10:46:59.128Z,45.07
2018-10-09T10:48:01.745Z,44.90
2018-10-09T10:49:06.144Z,44.71
2018-10-09T10:50:08.731Z,44.61
2018-10-09T10:51:11.350Z,44.88
2018-10-09T10:52:13.946Z,44.73
2018-10-09T10:53:16.547Z,44.71
2018-10-09T10:54:19.183Z,45.29
2018-10-09T10:55:21.784Z,44.67
2018-10-09T10:56:24.432Z,44.70
2018-10-09T10:57:27.056Z,44.85
2018-10-09T10:58:29.667Z,45.10
2018-10-09T10:59:32.267Z,44.89
2018-10-09T11:00:34.919Z,45.18
2018-10-09T11:01:37.542Z,44.84
2018-10-09T11:02:40.167Z,45.25
2018-10-09T11:03:42.756Z,44.63
2018-10-09T11:04:45.460Z,44.94
2018-10-09T11:05:48.078Z,44.62
2018-10-09T11:06:50.687Z,45.22
2018-10-09T11:07:53.314Z,45.17
2018-10-09T11:08:55.935Z,45.02
2018-10-09T11:09:58.758Z,45.11
2018-10-09T11:11:01.363Z,45.12
2018-10-09T11:12:04.116Z,44.74
2018-10-09T11:13:06.824Z,45.26
2018-10-09T11:14:09.440Z,44.83
2018-10-09T11:15:12.083Z,45.15
2018-10-09T11:16:14.807Z,44.64
2018-10-09T11:17:17.435Z,45.03
2018-10-09T11:18:20.050Z,45.15
2018-10-09T11:19:22.683Z,45.13
2018-10-09T11:20:25.279Z,45.01
2018-10-09T11:21:27.928Z,45.13
2018-10-09T11:22:30.547Z,45.20
2018-10-09T11:23:33.227Z,45.54
2018-10-09T11:24:35.912Z,45.39
2018-10-09T11:25:38.583Z,44.96
2018-10-09T11:26:41.252Z,45.49
2018-10-09T11:27:43.879Z,45.39
2018-10-09T11:28:46.508Z,45.48
2018-10-09T11:29:49.223Z,45.06
2018-10-09T11:30:51.858Z,44.99
2018-10-09T11:31:54.452Z,45.57
2018-10-09T11:32:57.055Z,45.58
2018-10-09T11:33:59.668Z,45.60
2018-10-09T11:35:02.307Z,45.49
2018-10-09T11:36:04.935Z,45.07
2018-10-09T11:37:07.579Z,45.43
2018-10-09T11:38:10.199Z,45.32
2018-10-09T11:39:12.819Z,45.13
2018-10-09T11:40:15.521Z,45.13
2018-10-09T11:41:18.135Z,45.50
2018-10-09T11:42:20.744Z,45.59
2018-10-09T11:43:23.355Z,45.53
2018-10-09T11:44:25.964Z,45.07
2018-10-09T11:45:28.656Z,45.07
2018-10-09T11:46:31.367Z,45.61
2018-10-09T11:47:33.975Z,45.63
2018-10-09T11:48:36.583Z,45.06
2018-10-09T11:49:39.190Z,45.33
2018-10-09T11:50:41.835Z,45.10
2018-10-09T11:51:44.451Z,45.14
2018-10-09T11:52:47.074Z,45.14
2018-10-09T11:53:49.667Z,45.10
2018-10-09T11:54:52.282Z,45.72
2018-10-09T11:55:54.956Z,45.27
2018-10-09T11:56:57.547Z,45.44
2018-10-09T11:58:00.151Z,45.50
2018-10-09T11:59:02.882Z,45.50
2018-10-09T12:00:05.996Z,45.11
2018-10-09T12:01:09.324Z,45.16
2018-10-09T12:02:12.012Z,45.50
2018-10-09T12:03:14.704Z,45.49
2018-10-09T12:04:17.348Z,45.48
2018-10-09T12:05:19.971Z,45.16
2018-10-09T12:06:22.643Z,45.17
2018-10-09T12:07:25.267Z,45.55
2018-10-09T12:08:27.868Z,45.17
2018-10-09T12:09:30.471Z,45.63
2018-10-09T12:10:33.087Z,45.37
2018-10-09T12:11:35.718Z,45.43
2018-10-09T12:12:38.351Z,45.30
2018-10-09T12:13:40.967Z,45.23
2018-10-09T12:14:43.571Z,45.63
2018-10-09T12:15:46.280Z,45.42
2018-10-09T12:16:48.863Z,45.56
2018-10-09T12:17:51.463Z,45.68
2018-10-09T12:18:54.087Z,45.13
2018-10-09T12:19:56.688Z,45.56
2018-10-09T12:20:59.327Z,45.36
2018-10-09T12:22:01.928Z,45.93
2018-10-09T12:23:04.560Z,45.61
2018-10-09T12:24:07.192Z,45.95
2018-10-09T12:25:09.783Z,45.71
2018-10-09T12:26:12.403Z,45.39
2018-10-09T12:27:15.020Z,45.70
2018-10-09T12:28:17.607Z,45.41
2018-10-09T12:29:20.219Z,45.93
2018-10-09T12:30:22.823Z,45.91
2018-10-09T12:31:25.515Z,45.69
2018-10-09T12:32:28.143Z,45.25
2018-10-09T12:33:30.767Z,45.54
2018-10-09T12:34:33.378Z,45.75
2018-10-09T12:35:35.991Z,45.38
2018-10-09T12:36:38.615Z,45.20
2018-10-09T12:37:41.214Z,45.31
2018-10-09T12:38:43.787Z,45.27
2018-10-09T12:39:46.407Z,45.84
2018-10-09T12:40:49.588Z,45.35
2018-10-09T12:41:52.190Z,45.39
2018-10-09T12:42:54.919Z,45.80
2018-10-09T12:43:57.681Z,45.40
2018-10-09T12:45:00.163Z,45.40
2018-10-09T12:46:02.771Z,45.89
2018-10-09T12:47:05.406Z,45.76
2018-10-09T12:48:08.017Z,45.74
2018-10-09T12:49:10.627Z,45.65
2018-10-09T12:50:13.268Z,46.12
2018-10-09T12:51:15.876Z,45.95
2018-10-09T12:52:18.479Z,45.60
2018-10-09T12:53:21.235Z,45.84
2018-10-09T12:54:23.854Z,46.17
2018-10-09T12:55:26.459Z,45.81
2018-10-09T12:56:29.064Z,46.08
2018-10-09T12:57:31.660Z,45.70
2018-10-09T12:58:34.335Z,46.13
2018-10-09T12:59:36.894Z,46.31
2018-10-09T13:00:39.490Z,45.68
2018-10-09T13:01:42.269Z,45.90
2018-10-09T13:02:44.859Z,46.25
2018-10-09T13:03:47.469Z,46.08
2018-10-09T13:04:50.107Z,46.08
2018-10-09T13:05:52.715Z,45.63
2018-10-09T13:06:55.344Z,45.77
2018-10-09T13:07:57.987Z,45.83
2018-10-09T13:09:00.621Z,46.04
2018-10-09T13:10:03.356Z,45.69
2018-10-09T13:11:06.535Z,45.68
2018-10-09T13:12:09.245Z,46.22
2018-10-09T13:13:11.859Z,46.13
2018-10-09T13:14:14.756Z,46.23
2018-10-09T13:15:17.391Z,46.12
2018-10-09T13:16:20.088Z,45.91
2018-10-09T13:17:22.764Z,45.75
2018-10-09T13:18:25.379Z,46.24
2018-10-09T13:19:28.519Z,45.51
2018-10-09T13:20:31.193Z,45.81
2018-10-09T13:21:34.030Z,45.88
2018-10-09T13:22:36.897Z,46.25
2018-10-09T13:23:39.575Z,45.75
2018-10-09T13:24:42.454Z,45.92
2018-10-09T13:25:45.551Z,45.81
2018-10-09T13:26:48.665Z,45.73